createdAt,value
2019-03-05T00:00:30.931Z,6
2019-03-05T00:01:30.929Z,6.02
2019-03-05T00:02:30.927Z,6.02
2019-03-05T00:03:30.904Z,6.01
2019-03-05T00:04:30.899Z,6
2019-03-05T00:05:30.909Z,6.02
2019-03-05T00:06:30.903Z,6.01
2019-03-05T00:07:30.939Z,6
2019-03-05T00:08:30.916Z,5.99
2019-03-05T00:09:30.928Z,5.98
2019-03-05T00:10:30.985Z,5.95
2019-03-05T00:11:30.897Z,5.95
2019-03-05T00:12:30.888Z,5.95
2019-03-05T00:13:30.924Z,5.94
2019-03-05T00:14:30.920Z,5.95
2019-03-05T00:15:31.021Z,5.95
2019-03-05T00:16:30.897Z,5.93
2019-03-05T00:17:30.882Z,5.93
2019-03-05T00:18:30.904Z,5.95
2019-03-05T00:19:30.914Z,5.93
2019-03-05T00:20:30.883Z,5.91
2019-03-05T00:21:31.220Z,5.89
2019-03-05T00:22:30.899Z,5.89
2019-03-05T00:23:30.903Z,5.88
2019-03-05T00:24:30.871Z,5.89
2019-03-05T00:25:30.896Z,5.88
2019-03-05T00:26:30.901Z,5.87
2019-03-05T00:27:30.917Z,5.89
2019-03-05T00:28:30.917Z,5.86
2019-03-05T00:29:30.867Z,5.84
2019-03-05T00:30:30.885Z,5.84
2019-03-05T00:31:30.909Z,5.82
2019-03-05T00:32:30.916Z,5.84
2019-03-05T00:33:33.186Z,5.82
2019-03-05T00:34:30.878Z,5.82
2019-03-05T00:35:30.885Z,5.83
2019-03-05T00:36:30.888Z,5.84
2019-03-05T00:37:30.896Z,5.83
2019-03-05T00:38:30.862Z,5.83
2019-03-05T00:39:30.900Z,5.81
2019-03-05T00:40:30.859Z,5.8
2019-03-05T00:41:30.872Z,5.8
2019-03-05T00:42:30.860Z,5.78
2019-03-05T00:43:31.767Z,5.79
2019-03-05T00:44:30.857Z,5.77
2019-03-05T00:45:30.860Z,5.78
2019-03-05T00:46:30.854Z,5.78
2019-03-05T00:47:30.840Z,5.77
2019-03-05T00:48:30.866Z,5.76
2019-03-05T00:49:30.857Z,5.75
2019-03-05T00:50:30.861Z,5.75
2019-03-05T00:51:30.836Z,5.74
2019-03-05T00:52:30.883Z,5.76
2019-03-05T00:53:30.840Z,5.72
2019-03-05T00:54:30.830Z,5.71
2019-03-05T00:55:30.835Z,5.7
2019-03-05T00:56:30.857Z,5.73
2019-03-05T00:57:30.847Z,5.71
2019-03-05T00:58:30.832Z,5.72
2019-03-05T00:59:30.880Z,5.72
2019-03-05T01:00:30.846Z,5.72
2019-03-05T01:01:30.856Z,5.69
2019-03-05T01:02:30.822Z,5.7
2019-03-05T01:03:30.865Z,5.68
2019-03-05T01:04:30.871Z,5.67
2019-03-05T01:05:30.854Z,5.68
2019-03-05T01:06:30.834Z,5.7
2019-03-05T01:07:30.813Z,5.7
2019-03-05T01:08:30.859Z,5.69
2019-03-05T01:09:30.824Z,5.7
2019-03-05T01:10:30.827Z,5.69
2019-03-05T01:11:30.819Z,5.69
2019-03-05T01:12:30.828Z,5.69
2019-03-05T01:13:30.814Z,5.69
2019-03-05T01:14:30.814Z,5.69
2019-03-05T01:15:30.804Z,5.68
2019-03-05T01:16:30.878Z,5.67
2019-03-05T01:17:30.837Z,5.67
2019-03-05T01:18:30.822Z,5.68
2019-03-05T01:19:30.818Z,5.67
2019-03-05T01:20:30.819Z,5.65
2019-03-05T01:21:30.889Z,5.64
2019-03-05T01:22:30.863Z,5.64
2019-03-05T01:23:30.794Z,5.64
2019-03-05T01:24:30.852Z,5.67
2019-03-05T01:25:30.809Z,5.65
2019-03-05T01:26:30.903Z,5.65
2019-03-05T01:27:30.807Z,5.65
2019-03-05T01:28:30.786Z,5.65
2019-03-05T01:29:30.820Z,5.65
2019-03-05T01:30:30.789Z,5.64
2019-03-05T01:31:30.856Z,5.65
2019-03-05T01:32:30.780Z,5.63
2019-03-05T01:33:30.799Z,5.64
2019-03-05T01:34:30.840Z,5.63
2019-03-05T01:35:30.780Z,5.65
2019-03-05T01:36:30.799Z,5.64
2019-03-05T01:37:30.803Z,5.65
2019-03-05T01:38:30.788Z,5.64
2019-03-05T01:39:30.793Z,5.65
2019-03-05T01:40:30.781Z,5.64
2019-03-05T01:41:30.802Z,5.65
2019-03-05T01:42:30.786Z,5.65
2019-03-05T01:43:30.767Z,5.65
2019-03-05T01:44:30.779Z,5.64
2019-03-05T01:45:30.796Z,5.65
2019-03-05T01:46:30.780Z,5.66
2019-03-05T01:47:30.770Z,5.67
2019-03-05T01:48:31.170Z,5.67
2019-03-05T01:49:30.762Z,5.66
2019-03-05T01:50:30.786Z,5.67
2019-03-05T01:51:30.784Z,5.66
2019-03-05T01:52:30.861Z,5.68
2019-03-05T01:53:30.811Z,5.68
2019-03-05T01:54:30.777Z,5.68
2019-03-05T01:55:30.821Z,5.67
2019-03-05T01:56:30.808Z,5.67
2019-03-05T01:57:30.759Z,5.67
2019-03-05T01:58:30.749Z,5.68
2019-03-05T01:59:30.770Z,5.68
2019-03-05T02:00:30.747Z,5.67
2019-03-05T02:01:30.759Z,5.67
2019-03-05T02:02:30.752Z,5.67
2019-03-05T02:03:30.732Z,5.68
2019-03-05T02:04:30.728Z,5.69
2019-03-05T02:05:30.745Z,5.71
2019-03-05T02:06:30.763Z,5.7
2019-03-05T02:07:30.752Z,5.68
2019-03-05T02:08:30.727Z,5.68
2019-03-05T02:09:30.775Z,5.68
2019-03-05T02:10:30.753Z,5.7
2019-03-05T02:11:30.755Z,5.71
2019-03-05T02:12:30.726Z,5.69
2019-03-05T02:13:30.764Z,5.67
2019-03-05T02:14:30.714Z,5.68
2019-03-05T02:15:30.724Z,5.69
2019-03-05T02:16:30.725Z,5.67
2019-03-05T02:17:30.742Z,5.67
2019-03-05T02:18:30.720Z,5.68
2019-03-05T02:19:30.720Z,5.68
2019-03-05T02:20:30.742Z,5.66
2019-03-05T02:21:30.726Z,5.68
2019-03-05T02:22:30.754Z,5.67
2019-03-05T02:23:30.782Z,5.7
2019-03-05T02:24:30.731Z,5.69
2019-03-05T02:25:30.728Z,5.68
2019-03-05T02:26:30.713Z,5.69
2019-03-05T02:27:31.319Z,5.67
2019-03-05T02:28:30.816Z,5.67
2019-03-05T02:29:30.700Z,5.68
2019-03-05T02:30:30.711Z,5.68
2019-03-05T02:31:30.739Z,5.68
2019-03-05T02:32:30.742Z,5.67
2019-03-05T02:33:30.715Z,5.67
2019-03-05T02:34:30.746Z,5.67
2019-03-05T02:35:30.747Z,5.67
2019-03-05T02:36:30.709Z,5.68
2019-03-05T02:37:30.736Z,5.67
2019-03-05T02:38:30.756Z,5.68
2019-03-05T02:39:30.693Z,5.68
2019-03-05T02:40:30.709Z,5.7
2019-03-05T02:41:30.679Z,5.69
2019-03-05T02:42:30.702Z,5.68
2019-03-05T02:43:30.727Z,5.69
2019-03-05T02:44:30.762Z,5.69
2019-03-05T02:45:32.022Z,5.68
2019-03-05T02:46:30.750Z,5.68
2019-03-05T02:47:30.765Z,5.69
2019-03-05T02:48:30.697Z,5.7
2019-03-05T02:49:30.773Z,5.69
2019-03-05T02:50:30.697Z,5.7
2019-03-05T02:51:30.736Z,5.7
2019-03-05T02:52:30.690Z,5.69
2019-03-05T02:53:30.839Z,5.69
2019-03-05T02:54:30.690Z,5.71
2019-03-05T02:55:30.678Z,5.71
2019-03-05T02:56:30.714Z,5.71
2019-03-05T02:57:30.728Z,5.72
2019-03-05T02:58:30.746Z,5.72
2019-03-05T02:59:30.671Z,5.73
2019-03-05T03:00:30.656Z,5.72
2019-03-05T03:01:30.652Z,5.77
2019-03-05T03:02:30.669Z,5.83
2019-03-05T03:03:30.673Z,5.88
2019-03-05T03:04:30.672Z,5.95
2019-03-05T03:05:30.735Z,5.89
2019-03-05T03:06:30.645Z,5.91
2019-03-05T03:07:30.695Z,5.95
2019-03-05T03:08:30.708Z,5.99
2019-03-05T03:09:30.674Z,5.95
2019-03-05T03:10:30.735Z,6
2019-03-05T03:11:30.698Z,6.05
2019-03-05T03:12:30.654Z,6.06
2019-03-05T03:13:30.633Z,6.08
2019-03-05T03:14:30.663Z,6.08
2019-03-05T03:15:30.720Z,6.09
2019-03-05T03:16:30.776Z,6.12
2019-03-05T03:17:30.799Z,6.15
2019-03-05T03:18:30.664Z,6.17
2019-03-05T03:19:30.652Z,6.15
2019-03-05T03:20:30.648Z,6.16
2019-03-05T03:21:30.652Z,6.16
2019-03-05T03:22:30.664Z,6.18
2019-03-05T03:23:30.670Z,6.2
2019-03-05T03:24:30.654Z,6.22
2019-03-05T03:25:30.648Z,6.26
2019-03-05T03:26:30.648Z,6.26
2019-03-05T03:27:30.624Z,6.24
2019-03-05T03:28:30.645Z,6.28
2019-03-05T03:29:30.657Z,6.27
2019-03-05T03:30:30.663Z,6.27
2019-03-05T03:31:30.695Z,6.28
2019-03-05T03:32:30.712Z,6.28
2019-03-05T03:33:30.671Z,6.33
2019-03-05T03:34:30.693Z,6.33
2019-03-05T03:35:30.650Z,6.33
2019-03-05T03:36:30.786Z,6.31
2019-03-05T03:37:30.655Z,6.3
2019-03-05T03:38:30.612Z,6.3
2019-03-05T03:39:30.627Z,6.32
2019-03-05T03:40:30.628Z,6.28
2019-03-05T03:41:30.624Z,6.28
2019-03-05T03:42:30.620Z,6.28
2019-03-05T03:43:30.658Z,6.23
2019-03-05T03:44:30.657Z,6.24
2019-03-05T03:45:30.610Z,6.25
2019-03-05T03:46:30.598Z,6.23
2019-03-05T03:47:30.625Z,6.23
2019-03-05T03:48:30.611Z,6.24
2019-03-05T03:49:30.610Z,6.25
2019-03-05T03:50:30.622Z,6.26
2019-03-05T03:51:30.627Z,6.26
2019-03-05T03:52:30.581Z,6.26
2019-03-05T03:53:30.650Z,6.23
2019-03-05T03:54:30.756Z,6.25
2019-03-05T03:55:30.607Z,6.27
2019-03-05T03:56:30.608Z,6.28
2019-03-05T03:57:30.583Z,6.3
2019-03-05T03:58:30.637Z,6.32
2019-03-05T03:59:30.602Z,6.33
2019-03-05T04:00:30.616Z,6.33
2019-03-05T04:01:30.717Z,6.34
2019-03-05T04:02:30.609Z,6.31
2019-03-05T04:03:30.613Z,6.31
2019-03-05T04:04:30.598Z,6.3
2019-03-05T04:05:30.585Z,6.31
2019-03-05T04:06:30.637Z,6.32
2019-03-05T04:07:30.593Z,6.3
2019-03-05T04:08:30.598Z,6.3
2019-03-05T04:09:30.596Z,6.27
2019-03-05T04:10:30.639Z,6.27
2019-03-05T04:11:30.597Z,6.31
2019-03-05T04:12:30.581Z,6.28
2019-03-05T04:13:30.581Z,6.27
2019-03-05T04:14:30.612Z,6.26
2019-03-05T04:15:31.365Z,6.26
2019-03-05T04:16:30.683Z,6.26
2019-03-05T04:17:30.586Z,6.26
2019-03-05T04:18:30.597Z,6.22
2019-03-05T04:19:30.613Z,6.24
2019-03-05T04:20:30.595Z,6.23
2019-03-05T04:21:30.593Z,6.22
2019-03-05T04:22:30.569Z,6.2
2019-03-05T04:23:30.557Z,6.21
2019-03-05T04:24:30.561Z,6.2
2019-03-05T04:25:30.536Z,6.19
2019-03-05T04:26:30.546Z,6.17
2019-03-05T04:27:30.550Z,6.17
2019-03-05T04:28:30.547Z,6.18
2019-03-05T04:29:30.599Z,6.19
2019-03-05T04:30:30.571Z,6.17
2019-03-05T04:31:30.561Z,6.18
2019-03-05T04:32:30.538Z,6.16
2019-03-05T04:33:30.547Z,6.17
2019-03-05T04:34:30.539Z,6.18
2019-03-05T04:35:30.533Z,6.16
2019-03-05T04:36:30.589Z,6.19
2019-03-05T04:37:30.689Z,6.14
2019-03-05T04:38:30.527Z,6.17
2019-03-05T04:39:30.533Z,6.17
2019-03-05T04:40:30.512Z,6.16
2019-03-05T04:41:30.509Z,6.17
2019-03-05T04:42:30.578Z,6.15
2019-03-05T04:43:30.516Z,6.17
2019-03-05T04:44:30.518Z,6.16
2019-03-05T04:45:30.525Z,6.17
2019-03-05T04:46:30.512Z,6.2
2019-03-05T04:47:30.501Z,6.15
2019-03-05T04:48:30.490Z,6.14
2019-03-05T04:49:30.508Z,6.14
2019-03-05T04:50:30.510Z,6.16
2019-03-05T04:51:30.493Z,6.17
2019-03-05T04:52:30.499Z,6.15
2019-03-05T04:53:30.520Z,6.12
2019-03-05T04:54:30.504Z,6.13
2019-03-05T04:55:30.509Z,6.12
2019-03-05T04:56:30.494Z,6.12
2019-03-05T04:57:30.497Z,6.12
2019-03-05T04:58:30.554Z,6.14
2019-03-05T04:59:30.704Z,6.12
2019-03-05T05:00:30.488Z,6.1
2019-03-05T05:01:30.512Z,6.08
2019-03-05T05:02:30.496Z,6.11
2019-03-05T05:03:30.501Z,6.12
2019-03-05T05:04:30.480Z,6.11
2019-03-05T05:05:30.491Z,6.05
2019-03-05T05:06:30.466Z,6.06
2019-03-05T05:07:30.509Z,6.04
2019-03-05T05:08:30.503Z,6.06
2019-03-05T05:09:30.469Z,6.08
2019-03-05T05:10:30.738Z,6.08
2019-03-05T05:11:30.483Z,6.08
2019-03-05T05:12:30.466Z,6.03
2019-03-05T05:13:30.476Z,6.09
2019-03-05T05:14:30.455Z,6.04
2019-03-05T05:15:30.501Z,6.02
2019-03-05T05:16:30.468Z,6.02
2019-03-05T05:17:30.452Z,6
2019-03-05T05:18:30.456Z,6.01
2019-03-05T05:19:30.463Z,6.01
2019-03-05T05:20:30.566Z,6
2019-03-05T05:21:30.527Z,6
2019-03-05T05:22:30.478Z,6.03
2019-03-05T05:23:30.439Z,6.04
2019-03-05T05:24:30.499Z,6
2019-03-05T05:25:30.488Z,6
2019-03-05T05:26:30.480Z,6.01
2019-03-05T05:27:30.452Z,6.06
2019-03-05T05:28:30.445Z,5.98
2019-03-05T05:29:30.472Z,6.04
2019-03-05T05:30:30.468Z,6.02
2019-03-05T05:31:30.462Z,5.99
2019-03-05T05:32:30.454Z,6
2019-03-05T05:33:30.427Z,5.96
2019-03-05T05:34:30.433Z,5.98
2019-03-05T05:35:30.469Z,5.97
2019-03-05T05:36:30.432Z,5.93
2019-03-05T05:37:30.429Z,5.94
2019-03-05T05:38:30.503Z,5.94
2019-03-05T05:39:30.415Z,5.96
2019-03-05T05:40:30.440Z,5.94
2019-03-05T05:41:30.430Z,5.95
2019-03-05T05:42:30.755Z,5.96
2019-03-05T05:43:30.416Z,5.95
2019-03-05T05:44:30.411Z,5.95
2019-03-05T05:45:30.438Z,5.93
2019-03-05T05:46:30.467Z,5.91
2019-03-05T05:47:30.438Z,5.95
2019-03-05T05:48:30.443Z,5.95
2019-03-05T05:49:30.405Z,5.91
2019-03-05T05:50:30.415Z,5.92
2019-03-05T05:51:30.393Z,5.93
2019-03-05T05:52:30.406Z,5.9
2019-03-05T05:53:30.434Z,5.9
2019-03-05T05:54:30.423Z,5.92
2019-03-05T05:55:30.409Z,5.92
2019-03-05T05:56:30.416Z,5.88
2019-03-05T05:57:30.394Z,5.9
2019-03-05T05:58:30.405Z,5.85
2019-03-05T05:59:30.392Z,5.89
2019-03-05T06:00:30.418Z,5.88
2019-03-05T06:01:30.424Z,5.9
2019-03-05T06:02:30.414Z,5.93
2019-03-05T06:03:30.550Z,5.86
2019-03-05T06:04:30.401Z,5.9
2019-03-05T06:05:30.413Z,5.89
2019-03-05T06:06:30.390Z,5.92
2019-03-05T06:07:30.385Z,5.91
2019-03-05T06:08:30.450Z,5.9
2019-03-05T06:09:30.400Z,5.95
2019-03-05T06:10:30.382Z,5.94
2019-03-05T06:11:30.377Z,5.85
2019-03-05T06:12:30.374Z,5.87
2019-03-05T06:13:30.427Z,5.87
2019-03-05T06:14:30.386Z,5.83
2019-03-05T06:15:30.372Z,5.83
2019-03-05T06:16:30.380Z,5.82
2019-03-05T06:17:30.379Z,5.84
2019-03-05T06:18:30.392Z,5.86
2019-03-05T06:19:30.407Z,5.81
2019-03-05T06:20:30.453Z,5.81
2019-03-05T06:21:30.371Z,5.79
2019-03-05T06:22:30.356Z,5.77
2019-03-05T06:23:30.425Z,5.79
2019-03-05T06:24:30.391Z,5.78
2019-03-05T06:25:30.413Z,5.8
2019-03-05T06:26:30.373Z,5.78
2019-03-05T06:27:30.344Z,5.75
2019-03-05T06:28:30.347Z,5.79
2019-03-05T06:29:30.355Z,5.76
2019-03-05T06:30:30.361Z,5.76
2019-03-05T06:31:30.351Z,5.79
2019-03-05T06:32:30.374Z,5.76
2019-03-05T06:33:30.354Z,5.77
2019-03-05T06:34:30.338Z,5.78
2019-03-05T06:35:30.342Z,5.78
2019-03-05T06:36:30.330Z,5.77
2019-03-05T06:37:33.416Z,5.75
2019-03-05T06:38:30.322Z,5.74
2019-03-05T06:39:30.330Z,5.77
2019-03-05T06:40:30.359Z,5.8
2019-03-05T06:41:30.362Z,5.79
2019-03-05T06:42:30.345Z,5.81
2019-03-05T06:43:30.356Z,5.83
2019-03-05T06:44:30.350Z,5.84
2019-03-05T06:45:30.340Z,5.86
2019-03-05T06:46:30.364Z,5.85
2019-03-05T06:47:30.685Z,5.85
2019-03-05T06:48:30.350Z,5.86
2019-03-05T06:49:30.343Z,5.83
2019-03-05T06:50:30.379Z,5.85
2019-03-05T06:51:30.324Z,5.85
2019-03-05T06:52:30.327Z,5.86
2019-03-05T06:53:30.312Z,5.87
2019-03-05T06:54:30.332Z,5.86
2019-03-05T06:55:30.334Z,5.86
2019-03-05T06:56:30.324Z,5.87
2019-03-05T06:57:30.341Z,5.88
2019-03-05T06:58:30.347Z,5.88
2019-03-05T06:59:30.398Z,5.92
2019-03-05T07:00:30.304Z,5.94
2019-03-05T07:01:30.323Z,5.96
2019-03-05T07:02:30.293Z,5.95
2019-03-05T07:03:30.330Z,5.98
2019-03-05T07:04:30.311Z,5.98
2019-03-05T07:05:30.328Z,5.99
2019-03-05T07:06:30.305Z,5.98
2019-03-05T07:07:30.310Z,5.93
2019-03-05T07:08:30.371Z,5.96
2019-03-05T07:09:30.281Z,5.95
2019-03-05T07:10:30.420Z,5.95
2019-03-05T07:11:30.287Z,5.94
2019-03-05T07:12:30.317Z,5.93
2019-03-05T07:13:30.294Z,5.93
2019-03-05T07:14:30.340Z,5.93
2019-03-05T07:15:30.345Z,5.93
2019-03-05T07:16:30.280Z,5.95
2019-03-05T07:17:30.294Z,5.91
2019-03-05T07:18:30.328Z,5.92
2019-03-05T07:19:30.306Z,5.91
2019-03-05T07:20:30.280Z,5.93
2019-03-05T07:21:30.262Z,5.92
2019-03-05T07:22:30.284Z,5.91
2019-03-05T07:23:30.281Z,5.89
2019-03-05T07:24:30.285Z,5.91
2019-03-05T07:25:30.305Z,5.91
2019-03-05T07:26:30.280Z,5.9
2019-03-05T07:27:30.371Z,5.91
2019-03-05T07:28:30.316Z,5.93
2019-03-05T07:29:30.665Z,5.93
2019-03-05T07:30:30.662Z,5.93
2019-03-05T07:31:30.394Z,5.95
2019-03-05T07:32:30.271Z,5.92
2019-03-05T07:33:30.273Z,5.92
2019-03-05T07:34:30.284Z,5.91
2019-03-05T07:35:30.261Z,5.9
2019-03-05T07:36:30.269Z,5.92
2019-03-05T07:37:30.267Z,5.93
2019-03-05T07:38:30.287Z,5.93
2019-03-05T07:39:30.266Z,5.92
2019-03-05T07:40:30.273Z,5.91
2019-03-05T07:41:30.271Z,5.89
2019-03-05T07:42:30.311Z,5.87
2019-03-05T07:43:37.022Z,5.88
2019-03-05T07:44:30.249Z,5.92
2019-03-05T07:45:30.265Z,5.89
2019-03-05T07:46:30.290Z,5.88
2019-03-05T07:47:30.249Z,5.91
2019-03-05T07:48:30.255Z,5.92
2019-03-05T07:49:30.249Z,5.92
2019-03-05T07:50:30.240Z,5.92
2019-03-05T07:51:30.618Z,5.93
2019-03-05T07:52:30.232Z,5.94
2019-03-05T07:53:30.239Z,5.91
2019-03-05T07:54:30.246Z,5.92
2019-03-05T07:55:30.237Z,5.91
2019-03-05T07:56:30.249Z,5.9
2019-03-05T07:57:30.232Z,5.87
2019-03-05T07:58:30.249Z,5.9
2019-03-05T07:59:30.244Z,5.9
2019-03-05T08:00:30.314Z,5.9
2019-03-05T08:01:30.273Z,5.92
2019-03-05T08:02:30.230Z,5.85
2019-03-05T08:03:30.239Z,5.81
2019-03-05T08:04:30.225Z,5.82
2019-03-05T08:05:30.317Z,5.82
2019-03-05T08:06:30.254Z,5.81
2019-03-05T08:07:30.243Z,5.84
2019-03-05T08:08:30.242Z,5.87
2019-03-05T08:09:30.238Z,5.9
2019-03-05T08:10:30.264Z,5.9
2019-03-05T08:11:32.131Z,5.94
2019-03-05T08:12:30.266Z,5.89
2019-03-05T08:13:30.269Z,5.89
2019-03-05T08:14:30.244Z,5.92
2019-03-05T08:15:30.199Z,5.91
2019-03-05T08:16:30.200Z,5.94
2019-03-05T08:17:30.287Z,5.88
2019-03-05T08:18:30.256Z,5.9
2019-03-05T08:19:30.212Z,5.88
2019-03-05T08:20:30.204Z,5.86
2019-03-05T08:21:30.192Z,5.83
2019-03-05T08:22:30.290Z,5.87
2019-03-05T08:23:30.202Z,5.88
2019-03-05T08:24:30.268Z,5.87
2019-03-05T08:25:30.210Z,5.85
2019-03-05T08:26:30.240Z,5.82
2019-03-05T08:27:30.187Z,5.86
2019-03-05T08:28:30.189Z,5.92
2019-03-05T08:29:30.188Z,5.9
2019-03-05T08:30:30.190Z,5.9
2019-03-05T08:31:30.195Z,5.9
2019-03-05T08:32:30.197Z,5.86
2019-03-05T08:33:30.210Z,5.76
2019-03-05T08:34:30.669Z,5.68
2019-03-05T08:35:30.194Z,5.76
2019-03-05T08:36:30.275Z,5.78
2019-03-05T08:37:30.184Z,5.74
2019-03-05T08:38:30.207Z,5.76
2019-03-05T08:39:30.230Z,5.74
2019-03-05T08:40:30.196Z,5.74
2019-03-05T08:41:30.491Z,5.68
2019-03-05T08:42:30.190Z,5.65
2019-03-05T08:43:30.174Z,5.62
2019-03-05T08:44:30.244Z,5.62
2019-03-05T08:45:30.190Z,5.57
2019-03-05T08:46:30.213Z,5.56
2019-03-05T08:47:30.232Z,5.6
2019-03-05T08:48:30.231Z,5.53
2019-03-05T08:49:30.180Z,5.54
2019-03-05T08:50:30.171Z,5.47
2019-03-05T08:51:30.227Z,5.52
2019-03-05T08:52:31.285Z,5.51
2019-03-05T08:53:30.161Z,5.5
2019-03-05T08:54:30.163Z,5.56
2019-03-05T08:55:30.256Z,5.55
2019-03-05T08:56:30.184Z,5.54
2019-03-05T08:57:30.164Z,5.55
2019-03-05T08:58:30.184Z,5.51
2019-03-05T08:59:33.223Z,5.46
2019-03-05T09:00:30.211Z,5.48
2019-03-05T09:01:30.141Z,5.44
2019-03-05T09:02:30.146Z,5.44
2019-03-05T09:03:30.146Z,5.44
2019-03-05T09:04:30.135Z,5.44
2019-03-05T09:05:30.147Z,5.47
2019-03-05T09:06:30.147Z,5.5
2019-03-05T09:07:30.132Z,5.51
2019-03-05T09:08:30.156Z,5.46
2019-03-05T09:09:30.165Z,5.4
2019-03-05T09:10:30.136Z,5.35
2019-03-05T09:11:30.129Z,5.4
2019-03-05T09:12:30.156Z,5.4
2019-03-05T09:13:33.492Z,5.45
2019-03-05T09:14:30.111Z,5.47
2019-03-05T09:15:30.269Z,5.49
2019-03-05T09:16:30.148Z,5.49
2019-03-05T09:17:30.222Z,5.46
2019-03-05T09:18:31.513Z,5.46
2019-03-05T09:19:30.099Z,5.5
2019-03-05T09:20:30.124Z,5.47
2019-03-05T09:21:30.106Z,5.5
2019-03-05T09:22:30.128Z,5.47
2019-03-05T09:23:30.144Z,5.52
2019-03-05T09:24:30.120Z,5.52
2019-03-05T09:25:30.225Z,5.54
2019-03-05T09:26:30.117Z,5.56
2019-03-05T09:27:30.086Z,5.61
2019-03-05T09:28:30.096Z,5.65
2019-03-05T09:29:30.111Z,5.7
2019-03-05T09:30:30.129Z,5.67
2019-03-05T09:31:30.191Z,5.68
2019-03-05T09:32:30.143Z,5.66
2019-03-05T09:33:30.115Z,5.66
2019-03-05T09:34:30.142Z,5.69
2019-03-05T09:35:30.101Z,5.7
2019-03-05T09:36:30.095Z,5.72
2019-03-05T09:37:30.110Z,5.76
2019-03-05T09:38:30.081Z,5.77
2019-03-05T09:39:30.265Z,5.78
2019-03-05T09:40:30.108Z,5.8
2019-03-05T09:41:30.100Z,5.85
2019-03-05T09:42:40.432Z,5.83
2019-03-05T09:43:30.098Z,5.89
2019-03-05T09:44:30.089Z,5.87
2019-03-05T09:45:30.099Z,5.88
2019-03-05T09:46:30.080Z,5.86
2019-03-05T09:47:30.120Z,5.89
2019-03-05T09:48:30.095Z,5.93
2019-03-05T09:49:30.102Z,6
2019-03-05T09:50:32.645Z,5.95
2019-03-05T09:51:30.087Z,5.97
2019-03-05T09:52:30.072Z,5.96
2019-03-05T09:53:30.087Z,5.95
2019-03-05T09:54:30.086Z,6.03
2019-03-05T09:55:30.092Z,6.07
2019-03-05T09:56:30.069Z,6.05
2019-03-05T09:57:30.081Z,6.06
2019-03-05T09:58:30.082Z,6.1
2019-03-05T09:59:30.076Z,6.11
2019-03-05T10:00:30.263Z,6.11
2019-03-05T10:01:30.146Z,6.09
2019-03-05T10:02:30.058Z,6.04
2019-03-05T10:03:30.058Z,6.07
2019-03-05T10:04:30.058Z,6.1
2019-03-05T10:05:30.104Z,6.1
2019-03-05T10:06:30.063Z,6.13
2019-03-05T10:07:30.075Z,6.09
2019-03-05T10:08:33.281Z,6.11
2019-03-05T10:09:30.054Z,6.14
2019-03-05T10:10:30.039Z,6.19
2019-03-05T10:11:30.061Z,6.18
2019-03-05T10:12:30.472Z,6.16
2019-03-05T10:13:30.061Z,6.13
2019-03-05T10:14:30.040Z,6.16
2019-03-05T10:15:30.034Z,6.17
2019-03-05T10:16:30.037Z,6.16
2019-03-05T10:17:38.535Z,6.22
2019-03-05T10:18:30.067Z,6.23
2019-03-05T10:19:30.040Z,6.2
2019-03-05T10:20:30.034Z,6.19
2019-03-05T10:21:30.019Z,6.22
2019-03-05T10:22:30.571Z,6.3
2019-03-05T10:23:30.233Z,6.25
2019-03-05T10:24:30.049Z,6.23
2019-03-05T10:25:30.090Z,6.26
2019-03-05T10:26:30.099Z,6.28
2019-03-05T10:27:30.010Z,6.25
2019-03-05T10:28:30.022Z,6.22
2019-03-05T10:29:30.051Z,6.26
2019-03-05T10:30:30.047Z,6.3
2019-03-05T10:31:30.031Z,6.29
2019-03-05T10:32:30.020Z,6.27
2019-03-05T10:33:30.102Z,6.28
2019-03-05T10:34:30.019Z,6.24
2019-03-05T10:35:30.032Z,6.2
2019-03-05T10:36:30.000Z,6.21
2019-03-05T10:37:30.019Z,6.3
2019-03-05T10:38:30.022Z,6.3
2019-03-05T10:39:31.633Z,6.31
2019-03-05T10:40:30.010Z,6.33
2019-03-05T10:41:30.072Z,6.3
2019-03-05T10:42:32.276Z,6.31
2019-03-05T10:43:30.027Z,6.37
2019-03-05T10:44:30.006Z,6.37
2019-03-05T10:45:30.005Z,6.36
2019-03-05T10:46:30.020Z,6.34
2019-03-05T10:48:30.812Z,6.43
2019-03-05T10:49:30.026Z,6.37
2019-03-05T10:50:30.126Z,6.39
2019-03-05T10:51:29.993Z,6.32
2019-03-05T10:52:30.001Z,6.39
2019-03-05T10:53:36.051Z,6.35
2019-03-05T10:54:44.466Z,6.35
2019-03-05T10:55:29.992Z,6.36
2019-03-05T10:56:29.996Z,6.38
2019-03-05T10:57:30.017Z,6.42
2019-03-05T10:58:34.731Z,6.36
2019-03-05T10:59:29.992Z,6.35
2019-03-05T11:00:29.980Z,6.39
2019-03-05T11:01:29.990Z,6.28
2019-03-05T11:02:31.865Z,6.36
2019-03-05T11:03:30.028Z,6.34
2019-03-05T11:04:30.000Z,6.37
2019-03-05T11:05:30.014Z,6.35
2019-03-05T11:06:30.261Z,6.35
2019-03-05T11:07:29.968Z,6.29
2019-03-05T11:08:29.991Z,6.3
2019-03-05T11:09:29.979Z,6.32
2019-03-05T11:10:29.980Z,6.29
2019-03-05T11:11:30.054Z,6.38
2019-03-05T11:12:29.965Z,6.37
2019-03-05T11:13:34.499Z,6.35
2019-03-05T11:14:29.983Z,6.3
2019-03-05T11:16:31.503Z,6.36
2019-03-05T11:17:29.973Z,6.33
2019-03-05T11:18:30.405Z,6.39
2019-03-05T11:19:30.036Z,6.39
2019-03-05T11:20:30.085Z,6.37
2019-03-05T11:21:35.910Z,6.39
2019-03-05T11:22:29.960Z,6.45
2019-03-05T11:23:29.965Z,6.44
2019-03-05T11:24:29.953Z,6.42
2019-03-05T11:25:29.974Z,6.4
2019-03-05T11:26:30.032Z,6.45
2019-03-05T11:27:38.078Z,6.49
2019-03-05T11:28:29.958Z,6.49
2019-03-05T11:29:30.000Z,6.47
2019-03-05T11:31:30.013Z,6.49
2019-03-05T11:33:29.965Z,6.44
2019-03-05T11:34:29.929Z,6.44
2019-03-05T11:35:29.936Z,6.42
2019-03-05T11:36:29.925Z,6.46
2019-03-05T11:37:29.952Z,6.51
2019-03-05T11:38:29.923Z,6.53
2019-03-05T11:39:29.914Z,6.53
2019-03-05T11:40:29.931Z,6.54
2019-03-05T11:41:29.899Z,6.53
2019-03-05T11:42:29.924Z,6.43
2019-03-05T11:43:29.930Z,6.48
2019-03-05T11:44:29.916Z,6.51
2019-03-05T11:45:29.906Z,6.46
2019-03-05T11:46:29.911Z,6.45
2019-03-05T11:47:30.174Z,6.45
2019-03-05T11:48:30.031Z,6.45
2019-03-05T11:49:30.211Z,6.48
2019-03-05T11:50:29.899Z,6.46
2019-03-05T11:51:29.900Z,6.46
2019-03-05T11:52:29.919Z,6.48
2019-03-05T11:53:29.935Z,6.45
2019-03-05T11:54:29.921Z,6.49
2019-03-05T11:55:29.918Z,6.53
2019-03-05T11:56:29.922Z,6.57
2019-03-05T11:57:29.902Z,6.57
2019-03-05T11:58:29.916Z,6.6
2019-03-05T11:59:29.884Z,6.54
2019-03-05T12:00:29.902Z,6.59
2019-03-05T12:01:29.889Z,6.58
2019-03-05T12:02:29.892Z,6.6
2019-03-05T12:03:29.908Z,6.63
2019-03-05T12:04:29.895Z,6.66
2019-03-05T12:05:29.881Z,6.69
2019-03-05T12:06:29.898Z,6.7
2019-03-05T12:07:29.888Z,6.7
2019-03-05T12:08:35.524Z,6.72
2019-03-05T12:09:31.980Z,6.77
2019-03-05T12:10:30.047Z,6.73
2019-03-05T12:11:29.913Z,6.76
2019-03-05T12:12:29.931Z,6.75
2019-03-05T12:13:29.881Z,6.81
2019-03-05T12:14:29.883Z,6.77
2019-03-05T12:15:29.877Z,6.77
2019-03-05T12:16:29.877Z,6.78
2019-03-05T12:17:29.878Z,6.72
2019-03-05T12:18:29.889Z,6.78
2019-03-05T12:19:30.976Z,6.78
2019-03-05T12:20:29.864Z,6.74
2019-03-05T12:21:29.859Z,6.73
2019-03-05T12:22:32.842Z,6.76
2019-03-05T12:23:29.899Z,6.75
2019-03-05T12:24:29.875Z,6.79
2019-03-05T12:25:29.876Z,6.83
2019-03-05T12:26:29.853Z,6.86
2019-03-05T12:27:29.849Z,6.84
2019-03-05T12:28:29.892Z,6.86
2019-03-05T12:29:29.892Z,6.89
2019-03-05T12:30:29.858Z,6.86
2019-03-05T12:31:30.208Z,6.84
2019-03-05T12:32:30.041Z,6.86
2019-03-05T12:33:29.864Z,6.83
2019-03-05T12:34:29.873Z,6.87
2019-03-05T12:35:29.867Z,6.81
2019-03-05T12:36:29.873Z,6.81
2019-03-05T12:37:29.859Z,6.82
2019-03-05T12:38:29.858Z,6.84
2019-03-05T12:39:29.865Z,6.79
2019-03-05T12:40:29.855Z,6.8
2019-03-05T12:41:29.820Z,6.86
2019-03-05T12:42:29.841Z,6.86
2019-03-05T12:43:29.843Z,6.83
2019-03-05T12:44:29.840Z,6.83
2019-03-05T12:45:29.903Z,6.81
2019-03-05T12:46:29.832Z,6.8
2019-03-05T12:47:29.847Z,6.85
2019-03-05T12:48:40.731Z,6.86
2019-03-05T12:49:29.845Z,6.89
2019-03-05T12:50:29.819Z,6.86
2019-03-05T12:51:29.827Z,6.85
2019-03-05T12:52:29.820Z,6.87
2019-03-05T12:53:29.893Z,6.89
2019-03-05T12:54:29.847Z,6.85
2019-03-05T12:55:29.914Z,6.86
2019-03-05T12:56:29.834Z,6.87
2019-03-05T12:57:29.842Z,6.88
2019-03-05T12:58:29.825Z,6.89
2019-03-05T12:59:29.854Z,6.93
2019-03-05T13:00:29.821Z,6.9
2019-03-05T13:01:29.825Z,6.93
2019-03-05T13:02:29.799Z,6.88
2019-03-05T13:03:29.813Z,6.91
2019-03-05T13:04:29.817Z,6.93
2019-03-05T13:05:29.800Z,6.97
2019-03-05T13:06:31.706Z,6.93
2019-03-05T13:07:29.788Z,6.92
2019-03-05T13:08:29.804Z,6.94
2019-03-05T13:09:29.792Z,6.96
2019-03-05T13:10:37.925Z,6.97
2019-03-05T13:11:29.792Z,6.99
2019-03-05T13:12:40.275Z,7.01
2019-03-05T13:13:29.805Z,6.95
2019-03-05T13:14:29.794Z,6.92
2019-03-05T13:15:29.832Z,6.91
2019-03-05T13:16:30.061Z,6.96
2019-03-05T13:17:29.799Z,6.97
2019-03-05T13:18:32.597Z,6.95
2019-03-05T13:19:29.791Z,6.98
2019-03-05T13:20:29.779Z,6.98
2019-03-05T13:21:29.792Z,6.91
2019-03-05T13:22:30.232Z,6.94
2019-03-05T13:23:29.775Z,6.96
2019-03-05T13:24:29.784Z,6.95
2019-03-05T13:25:30.274Z,6.95
2019-03-05T13:26:29.794Z,6.95